createdAt,value
2018-04-29T00:00:13.986Z,9
2018-04-29T00:01:13.719Z,8.98
2018-04-29T00:02:13.961Z,8.86
2018-04-29T00:03:13.949Z,8.92
2018-04-29T00:04:13.427Z,9.03
2018-04-29T00:05:13.683Z,9.03
2018-04-29T00:06:13.669Z,9
2018-04-29T00:07:13.657Z,9.01
2018-04-29T00:08:13.866Z,8.95
2018-04-29T00:09:13.910Z,8.95
2018-04-29T00:10:13.625Z,8.95
2018-04-29T00:11:14.078Z,8.95
2018-04-29T00:12:13.933Z,9
2018-04-29T00:13:13.594Z,8.98
2018-04-29T00:14:13.582Z,8.94
2018-04-29T00:15:13.841Z,8.83
2018-04-29T00:16:13.822Z,8.8
2018-04-29T00:17:13.551Z,8.92
2018-04-29T00:18:13.797Z,8.87
2018-04-29T00:19:13.790Z,8.86
2018-04-29T00:20:13.518Z,8.87
2018-04-29T00:21:13.804Z,8.89
2018-04-29T00:22:13.772Z,8.77
2018-04-29T00:23:13.751Z,8.85
2018-04-29T00:24:13.736Z,8.83
2018-04-29T00:25:13.729Z,8.79
2018-04-29T00:26:13.476Z,8.83
2018-04-29T00:27:13.704Z,8.85
2018-04-29T00:28:13.693Z,8.74
2018-04-29T00:29:13.689Z,8.72
2018-04-29T00:30:13.675Z,8.85
2018-04-29T00:31:13.406Z,8.76
2018-04-29T00:32:13.679Z,8.72
2018-04-29T00:33:13.636Z,8.72
2018-04-29T00:34:13.380Z,8.69
2018-04-29T00:35:13.370Z,8.74
2018-04-29T00:36:13.612Z,8.74
2018-04-29T00:37:13.604Z,8.68
2018-04-29T00:38:13.612Z,8.61
2018-04-29T00:39:13.605Z,8.64
2018-04-29T00:40:13.312Z,8.68
2018-04-29T00:41:13.299Z,8.58
2018-04-29T00:42:13.289Z,8.61
2018-04-29T00:43:13.534Z,8.58
2018-04-29T00:44:13.273Z,8.53
2018-04-29T00:45:13.514Z,8.47
2018-04-29T00:46:13.250Z,8.5
2018-04-29T00:47:13.236Z,8.39
2018-04-29T00:48:13.506Z,8.47
2018-04-29T00:49:12.960Z,8.4
2018-04-29T00:50:13.476Z,8.49
2018-04-29T00:51:13.474Z,8.36
2018-04-29T00:52:13.184Z,8.31
2018-04-29T00:53:13.672Z,8.36
2018-04-29T00:54:13.160Z,8.32
2018-04-29T00:55:13.153Z,8.35
2018-04-29T00:56:13.415Z,8.36
2018-04-29T00:57:13.136Z,8.35
2018-04-29T00:58:13.122Z,8.35
2018-04-29T00:59:13.475Z,8.35
2018-04-29T01:00:13.081Z,8.31
2018-04-29T01:01:13.091Z,8.25
2018-04-29T01:02:13.332Z,8.32
2018-04-29T01:03:13.329Z,8.25
2018-04-29T01:04:13.060Z,8.26
2018-04-29T01:05:13.322Z,8.19
2018-04-29T01:06:13.293Z,8.21
2018-04-29T01:07:13.281Z,8.22
2018-04-29T01:08:13.272Z,8.31
2018-04-29T01:09:13.260Z,8.21
2018-04-29T01:10:12.988Z,8.24
2018-04-29T01:11:13.476Z,8.17
2018-04-29T01:12:12.967Z,8.22
2018-04-29T01:13:13.220Z,8.16
2018-04-29T01:14:13.209Z,8.16
2018-04-29T01:15:12.958Z,8.13
2018-04-29T01:16:13.183Z,8.09
2018-04-29T01:17:13.180Z,8.16
2018-04-29T01:18:12.907Z,8.13
2018-04-29T01:19:13.163Z,8.09
2018-04-29T01:20:13.118Z,8.11
2018-04-29T01:21:12.874Z,8.09
2018-04-29T01:22:13.121Z,8.06
2018-04-29T01:23:13.249Z,8.07
2018-04-29T01:24:12.844Z,8.07
2018-04-29T01:25:12.842Z,8.19
2018-04-29T01:26:13.078Z,8.19
2018-04-29T01:27:12.804Z,8.17
2018-04-29T01:28:13.034Z,8.34
2018-04-29T01:29:13.040Z,8.14
2018-04-29T01:30:12.773Z,8.17
2018-04-29T01:31:13.029Z,8.26
2018-04-29T01:32:12.754Z,8.24
2018-04-29T01:33:12.995Z,8.24
2018-04-29T01:34:12.735Z,8.24
2018-04-29T01:35:12.981Z,8.21
2018-04-29T01:36:12.712Z,8.17
2018-04-29T01:37:12.698Z,8.26
2018-04-29T01:38:12.944Z,8.11
2018-04-29T01:39:12.936Z,8.16
2018-04-29T01:40:12.938Z,8.17
2018-04-29T01:41:12.916Z,8.19
2018-04-29T01:42:12.654Z,8.16
2018-04-29T01:43:12.628Z,8.16
2018-04-29T01:44:12.882Z,8.14
2018-04-29T01:45:12.877Z,8.06
2018-04-29T01:46:12.597Z,8.09
2018-04-29T01:47:12.339Z,8.11
2018-04-29T01:48:12.832Z,8.07
2018-04-29T01:49:12.566Z,8.01
2018-04-29T01:50:12.558Z,7.96
2018-04-29T01:51:12.545Z,7.91
2018-04-29T01:52:12.276Z,7.98
2018-04-29T01:53:12.525Z,7.92
2018-04-29T01:54:12.796Z,7.95
2018-04-29T01:55:12.758Z,7.96
2018-04-29T01:56:12.488Z,8.01
2018-04-29T01:57:12.757Z,7.99
2018-04-29T01:58:12.721Z,8.03
2018-04-29T01:59:12.455Z,7.96
2018-04-29T02:00:12.442Z,7.95
2018-04-29T02:01:12.688Z,7.92
2018-04-29T02:02:12.421Z,7.96
2018-04-29T02:03:12.671Z,7.93
2018-04-29T02:04:12.669Z,7.98
2018-04-29T02:05:12.645Z,7.96
2018-04-29T02:06:12.633Z,7.88
2018-04-29T02:07:12.108Z,7.96
2018-04-29T02:08:12.612Z,7.85
2018-04-29T02:09:12.670Z,7.91
2018-04-29T02:10:12.617Z,7.85
2018-04-29T02:11:12.066Z,7.93
2018-04-29T02:12:12.319Z,7.95
2018-04-29T02:13:12.558Z,7.96
2018-04-29T02:14:12.312Z,7.95
2018-04-29T02:15:12.291Z,7.98
2018-04-29T02:16:12.527Z,7.95
2018-04-29T02:17:12.283Z,7.92
2018-04-29T02:18:12.521Z,7.96
2018-04-29T02:19:12.491Z,7.96
2018-04-29T02:20:11.959Z,8.01
2018-04-29T02:21:12.213Z,8.01
2018-04-29T02:22:12.201Z,8.03
2018-04-29T02:23:12.188Z,8.09
2018-04-29T02:24:12.176Z,7.99
2018-04-29T02:25:12.668Z,8.06
2018-04-29T02:26:12.162Z,8.03
2018-04-29T02:27:12.422Z,7.98
2018-04-29T02:28:12.130Z,7.96
2018-04-29T02:29:12.380Z,7.96
2018-04-29T02:30:12.116Z,8.03
2018-04-29T02:31:12.373Z,7.98
2018-04-29T02:32:12.359Z,8.01
2018-04-29T02:33:12.080Z,8.03
2018-04-29T02:34:12.067Z,8.03
2018-04-29T02:35:12.312Z,8.06
2018-04-29T02:36:12.046Z,8.03
2018-04-29T02:37:12.306Z,8.04
2018-04-29T02:38:12.019Z,8.03
2018-04-29T02:39:12.014Z,7.99
2018-04-29T02:40:12.002Z,8.06
2018-04-29T02:41:12.256Z,7.95
2018-04-29T02:42:12.240Z,7.93
2018-04-29T02:43:12.220Z,7.98
2018-04-29T02:44:11.960Z,7.98
2018-04-29T02:45:12.204Z,7.91
2018-04-29T02:46:11.680Z,7.95
2018-04-29T02:47:12.185Z,7.92
2018-04-29T02:48:11.911Z,7.86
2018-04-29T02:49:11.907Z,7.8
2018-04-29T02:50:11.891Z,7.8
2018-04-29T02:51:11.895Z,7.8
2018-04-29T02:52:11.864Z,7.78
2018-04-29T02:53:12.128Z,7.83
2018-04-29T02:54:11.863Z,7.77
2018-04-29T02:55:12.111Z,7.77
2018-04-29T02:56:12.085Z,7.77
2018-04-29T02:57:11.813Z,7.77
2018-04-29T02:58:12.050Z,7.77
2018-04-29T02:59:12.045Z,7.83
2018-04-29T03:00:12.036Z,7.82
2018-04-29T03:01:11.795Z,7.92
2018-04-29T03:02:11.761Z,7.96
2018-04-29T03:03:11.998Z,7.98
2018-04-29T03:04:11.748Z,8.09
2018-04-29T03:05:11.460Z,8.04
2018-04-29T03:06:11.715Z,8.07
2018-04-29T03:07:11.701Z,8.07
2018-04-29T03:08:11.943Z,8.14
2018-04-29T03:09:11.676Z,8.22
2018-04-29T03:10:11.984Z,8.16
2018-04-29T03:11:11.921Z,8.24
2018-04-29T03:12:11.640Z,8.22
2018-04-29T03:13:11.885Z,8.24
2018-04-29T03:14:11.872Z,8.28
2018-04-29T03:15:11.605Z,8.36
2018-04-29T03:16:11.595Z,8.42
2018-04-29T03:17:11.837Z,8.49
2018-04-29T03:18:11.566Z,8.49
2018-04-29T03:19:11.579Z,8.54
2018-04-29T03:20:11.816Z,8.6
2018-04-29T03:21:11.802Z,8.65
2018-04-29T03:22:11.523Z,8.62
2018-04-29T03:23:11.778Z,8.67
2018-04-29T03:24:11.774Z,8.71
2018-04-29T03:25:11.489Z,8.72
2018-04-29T03:26:11.757Z,8.71
2018-04-29T03:27:11.727Z,8.77
2018-04-29T03:28:11.722Z,8.74
2018-04-29T03:29:11.451Z,8.72
2018-04-29T03:30:11.697Z,8.76
2018-04-29T03:31:11.439Z,8.72
2018-04-29T03:32:11.676Z,8.76
2018-04-29T03:33:11.659Z,8.76
2018-04-29T03:34:11.660Z,8.71
2018-04-29T03:35:11.404Z,8.76
2018-04-29T03:36:11.392Z,8.71
2018-04-29T03:37:11.360Z,8.67
2018-04-29T03:38:11.607Z,8.65
2018-04-29T03:39:11.595Z,8.69
2018-04-29T03:40:11.328Z,8.61
2018-04-29T03:41:11.319Z,8.62
2018-04-29T03:42:11.304Z,8.54
2018-04-29T03:43:11.562Z,8.49
2018-04-29T03:44:11.537Z,8.47
2018-04-29T03:45:11.543Z,8.44
2018-04-29T03:46:11.521Z,8.42
2018-04-29T03:47:10.993Z,8.36
2018-04-29T03:48:11.501Z,8.36
2018-04-29T03:49:11.488Z,8.34
2018-04-29T03:50:11.218Z,8.31
2018-04-29T03:51:11.473Z,8.19
2018-04-29T03:52:11.452Z,8.21
2018-04-29T03:53:11.441Z,8.28
2018-04-29T03:54:11.174Z,8.22
2018-04-29T03:55:11.159Z,8.24
2018-04-29T03:56:11.580Z,8.16
2018-04-29T03:57:11.400Z,8.07
2018-04-29T03:58:11.390Z,8.16
2018-04-29T03:59:11.124Z,8.22
2018-04-29T04:00:11.126Z,8.26
2018-04-29T04:01:11.361Z,8.32
2018-04-29T04:02:11.346Z,8.24
2018-04-29T04:03:11.076Z,8.24
2018-04-29T04:04:11.068Z,8.24
2018-04-29T04:05:11.314Z,8.32
2018-04-29T04:06:10.785Z,8.22
2018-04-29T04:07:11.295Z,8.22
2018-04-29T04:08:11.283Z,8.24
2018-04-29T04:09:11.009Z,8.24
2018-04-29T04:10:11.539Z,8.26
2018-04-29T04:11:11.000Z,8.31
2018-04-29T04:12:10.989Z,8.21
2018-04-29T04:13:11.279Z,8.31
2018-04-29T04:14:11.210Z,8.22
2018-04-29T04:15:10.943Z,8.28
2018-04-29T04:16:11.196Z,8.35
2018-04-29T04:17:11.181Z,8.24
2018-04-29T04:18:11.183Z,8.26
2018-04-29T04:19:10.643Z,8.31
2018-04-29T04:20:10.897Z,8.42
2018-04-29T04:21:10.629Z,8.34
2018-04-29T04:22:11.125Z,8.32
2018-04-29T04:23:10.867Z,8.42
2018-04-29T04:24:10.845Z,8.39
2018-04-29T04:25:11.102Z,8.49
2018-04-29T04:26:11.086Z,8.46
2018-04-29T04:27:11.085Z,8.58
2018-04-29T04:28:10.806Z,8.52
2018-04-29T04:29:11.055Z,8.69
2018-04-29T04:30:11.043Z,8.64
2018-04-29T04:31:11.027Z,8.74
2018-04-29T04:32:11.073Z,8.76
2018-04-29T04:33:11.078Z,8.85
2018-04-29T04:34:10.877Z,8.92
2018-04-29T04:35:10.733Z,8.94
2018-04-29T04:36:11.021Z,8.98
2018-04-29T04:37:10.983Z,9
2018-04-29T04:38:10.970Z,9
2018-04-29T04:39:10.942Z,8.95
2018-04-29T04:40:10.966Z,8.94
2018-04-29T04:41:10.724Z,8.9
2018-04-29T04:42:10.914Z,8.95
2018-04-29T04:43:10.384Z,8.92
2018-04-29T04:44:10.629Z,8.92
2018-04-29T04:45:10.361Z,8.97
2018-04-29T04:46:10.865Z,8.9
2018-04-29T04:47:10.858Z,8.94
2018-04-29T04:48:10.866Z,8.97
2018-04-29T04:49:10.839Z,9
2018-04-29T04:50:10.835Z,9
2018-04-29T04:51:10.813Z,9
2018-04-29T04:52:10.546Z,8.98
2018-04-29T04:53:10.792Z,9
2018-04-29T04:54:10.777Z,9
2018-04-29T04:55:10.795Z,8.97
2018-04-29T04:56:10.512Z,9.01
2018-04-29T04:57:10.490Z,8.92
2018-04-29T04:58:10.986Z,9
2018-04-29T04:59:10.210Z,8.97
2018-04-29T05:00:10.457Z,9.14
2018-04-29T05:01:10.650Z,9.2
2018-04-29T05:02:10.693Z,9.19
2018-04-29T05:03:10.705Z,9.29
2018-04-29T05:04:10.676Z,9.32
2018-04-29T05:05:10.665Z,9.47
2018-04-29T05:06:10.650Z,9.48
2018-04-29T05:07:10.644Z,9.55
2018-04-29T05:08:10.651Z,9.55
2018-04-29T05:09:10.104Z,9.67
2018-04-29T05:10:10.354Z,9.77
2018-04-29T05:11:10.604Z,9.84
2018-04-29T05:12:10.597Z,9.89
2018-04-29T05:13:10.323Z,9.88
2018-04-29T05:14:10.313Z,9.98
2018-04-29T05:15:10.309Z,9.9
2018-04-29T05:16:10.289Z,10.02
2018-04-29T05:17:10.560Z,10.1
2018-04-29T05:18:10.274Z,10.03
2018-04-29T05:19:10.266Z,10
2018-04-29T05:20:10.257Z,10.08
2018-04-29T05:21:10.502Z,10.17
2018-04-29T05:22:10.566Z,10.17
2018-04-29T05:23:10.477Z,10.18
2018-04-29T05:24:10.210Z,10.26
2018-04-29T05:25:10.213Z,10.41
2018-04-29T05:26:10.451Z,10.44
2018-04-29T05:27:10.335Z,10.52
2018-04-29T05:28:10.171Z,10.55
2018-04-29T05:29:10.160Z,10.67
2018-04-29T05:30:10.632Z,10.72
2018-04-29T05:31:10.410Z,10.84
2018-04-29T05:32:10.621Z,10.87
2018-04-29T05:33:10.386Z,10.9
2018-04-29T05:34:10.121Z,10.94
2018-04-29T05:35:10.367Z,11.03
2018-04-29T05:36:10.094Z,11.15
2018-04-29T05:37:10.354Z,11.09
2018-04-29T05:38:10.341Z,11.09
2018-04-29T05:39:10.425Z,11.21
2018-04-29T05:40:10.318Z,11.41
2018-04-29T05:41:10.483Z,11.45
2018-04-29T05:42:10.300Z,11.49
2018-04-29T05:43:10.289Z,11.53
2018-04-29T05:44:10.025Z,11.56
2018-04-29T05:45:10.013Z,11.63
2018-04-29T05:46:10.021Z,11.66
2018-04-29T05:47:10.259Z,11.78
2018-04-29T05:48:09.986Z,11.88
2018-04-29T05:49:09.975Z,11.94
2018-04-29T05:50:10.229Z,12.05
2018-04-29T05:51:09.960Z,12.1
2018-04-29T05:52:10.214Z,12.18
2018-04-29T05:53:10.423Z,12.11
2018-04-29T05:54:09.934Z,12.18
2018-04-29T05:55:10.288Z,12.26
2018-04-29T05:56:09.920Z,12.29
2018-04-29T05:57:09.905Z,12.34
2018-04-29T05:58:09.649Z,12.37
2018-04-29T05:59:10.154Z,12.43
2018-04-29T06:00:09.642Z,12.41
2018-04-29T06:01:09.872Z,12.41
2018-04-29T06:02:09.613Z,12.41
2018-04-29T06:03:09.860Z,12.59
2018-04-29T06:04:09.853Z,12.55
2018-04-29T06:05:09.842Z,12.61
2018-04-29T06:06:09.842Z,12.74
2018-04-29T06:07:10.095Z,12.92
2018-04-29T06:08:10.081Z,12.96
2018-04-29T06:09:10.076Z,13.09
2018-04-29T06:10:10.085Z,13.19
2018-04-29T06:11:09.997Z,13.21
2018-04-29T06:12:10.048Z,13.37
2018-04-29T06:13:09.804Z,13.5
2018-04-29T06:14:09.881Z,13.53
2018-04-29T06:15:09.512Z,13.65
2018-04-29T06:16:10.245Z,13.72
2018-04-29T06:17:10.009Z,13.79
2018-04-29T06:18:10.005Z,13.84
2018-04-29T06:19:09.994Z,14.03
2018-04-29T06:20:10.014Z,14.06
2018-04-29T06:21:09.723Z,14.05
2018-04-29T06:22:09.982Z,14.12
2018-04-29T06:23:09.970Z,14.28
2018-04-29T06:24:09.699Z,14.24
2018-04-29T06:25:09.434Z,14.45
2018-04-29T06:26:10.491Z,14.44
2018-04-29T06:27:09.940Z,14.51
2018-04-29T06:28:09.677Z,14.48
2018-04-29T06:29:09.925Z,14.61
2018-04-29T06:30:09.658Z,14.67
2018-04-29T06:31:09.912Z,14.75
2018-04-29T06:32:09.902Z,14.71
2018-04-29T06:33:09.894Z,14.83
2018-04-29T06:34:09.889Z,14.86
2018-04-29T06:35:09.651Z,14.93
2018-04-29T06:36:09.881Z,14.98
2018-04-29T06:37:09.611Z,15.04
2018-04-29T06:38:09.867Z,15.02
2018-04-29T06:39:09.869Z,15.01
2018-04-29T06:40:09.864Z,15.02
2018-04-29T06:41:09.597Z,15.05
2018-04-29T06:42:09.591Z,15.15
2018-04-29T06:43:09.850Z,15.34
2018-04-29T06:44:09.577Z,15.41
2018-04-29T06:45:09.845Z,15.74
2018-04-29T06:46:09.819Z,16.16
2018-04-29T06:47:09.300Z,16.47
2018-04-29T06:48:09.808Z,16.9
2018-04-29T06:49:09.550Z,17.09
2018-04-29T06:50:09.559Z,17.5
2018-04-29T06:51:09.535Z,17.87
2018-04-29T06:52:09.530Z,18.32
2018-04-29T06:53:09.793Z,18.93
2018-04-29T06:54:09.780Z,19.56
2018-04-29T06:55:09.518Z,20.15
2018-04-29T06:56:09.772Z,20.86
2018-04-29T06:57:09.787Z,21.48
2018-04-29T06:58:09.526Z,22.12
2018-04-29T06:59:09.499Z,22.73
2018-04-29T07:00:09.763Z,23.37
2018-04-29T07:01:09.756Z,23.63
2018-04-29T07:02:09.768Z,23.92
2018-04-29T07:03:09.497Z,24.09
2018-04-29T07:04:09.746Z,24.15
2018-04-29T07:05:09.493Z,24.33
2018-04-29T07:06:09.489Z,24.49
2018-04-29T07:07:09.745Z,24.7
2018-04-29T07:08:09.537Z,24.97
2018-04-29T07:09:09.506Z,25.33
2018-04-29T07:10:09.495Z,25.38
2018-04-29T07:11:09.488Z,25.63
2018-04-29T07:12:09.485Z,25.78
2018-04-29T07:13:09.227Z,25.76
2018-04-29T07:14:09.571Z,25.49
2018-04-29T07:15:09.496Z,25.38
2018-04-29T07:16:09.747Z,25.49
2018-04-29T07:17:09.490Z,25.81
2018-04-29T07:18:09.486Z,26.12
2018-04-29T07:19:09.492Z,26.41
2018-04-29T07:20:09.634Z,26.68
2018-04-29T07:21:09.513Z,26.76
2018-04-29T07:22:09.496Z,26.86
2018-04-29T07:23:09.505Z,27.11
2018-04-29T07:24:09.756Z,27.06
2018-04-29T07:25:09.502Z,27.18
2018-04-29T07:26:09.541Z,27.43
2018-04-29T07:27:09.506Z,27.24
2018-04-29T07:28:09.767Z,26.91
2018-04-29T07:29:09.506Z,26.49
2018-04-29T07:30:09.520Z,26.01
2018-04-29T07:31:09.772Z,25.79
2018-04-29T07:32:09.774Z,25.85
2018-04-29T07:33:09.722Z,26.04
2018-04-29T07:34:10.136Z,26.2
2018-04-29T07:35:09.779Z,26.44
2018-04-29T07:36:09.524Z,26.61
2018-04-29T07:37:09.786Z,26.78
2018-04-29T07:38:09.787Z,27
2018-04-29T07:39:09.815Z,27.04
2018-04-29T07:40:09.972Z,27.08
2018-04-29T07:41:09.538Z,27.19
2018-04-29T07:42:09.793Z,27.18
2018-04-29T07:43:09.577Z,27.16
2018-04-29T07:44:09.816Z,27.01
2018-04-29T07:45:09.797Z,26.82
2018-04-29T07:46:09.802Z,26.64
2018-04-29T07:47:09.795Z,26.32
2018-04-29T07:48:09.544Z,25.97
2018-04-29T07:49:09.806Z,25.38
2018-04-29T07:50:09.551Z,25.09
2018-04-29T07:51:09.810Z,24.52
2018-04-29T07:52:09.650Z,24.21
2018-04-29T07:53:09.808Z,23.9
2018-04-29T07:54:09.816Z,23.35
2018-04-29T07:55:09.516Z,22.91
2018-04-29T07:56:09.825Z,22.49
2018-04-29T07:57:09.816Z,22.34
2018-04-29T07:58:10.035Z,21.93
2018-04-29T07:59:09.570Z,21.71
2018-04-29T08:00:09.297Z,21.61
2018-04-29T08:01:09.831Z,21.31
2018-04-29T08:02:09.838Z,21.4
2018-04-29T08:03:09.551Z,21.28
2018-04-29T08:04:09.816Z,21.37
2018-04-29T08:05:09.816Z,21.18
2018-04-29T08:06:09.814Z,21.27
2018-04-29T08:07:09.824Z,21.21
2018-04-29T08:08:09.569Z,20.97
2018-04-29T08:09:09.560Z,20.9
2018-04-29T08:10:09.835Z,20.9
2018-04-29T08:11:09.812Z,20.83
2018-04-29T08:12:09.757Z,20.93
2018-04-29T08:13:09.808Z,20.83
2018-04-29T08:14:09.558Z,20.78
2018-04-29T08:15:09.811Z,20.72
2018-04-29T08:16:09.554Z,20.64
2018-04-29T08:17:09.827Z,20.67
2018-04-29T08:18:09.554Z,20.74
2018-04-29T08:19:09.808Z,20.83
2018-04-29T08:20:09.811Z,21
2018-04-29T08:21:09.812Z,20.98
2018-04-29T08:22:09.841Z,20.83
2018-04-29T08:23:09.569Z,20.93
2018-04-29T08:24:09.550Z,20.88
2018-04-29T08:25:09.548Z,21
2018-04-29T08:26:09.548Z,21.19
2018-04-29T08:27:09.550Z,21.16
2018-04-29T08:28:09.807Z,21.23
2018-04-29T08:29:09.812Z,21.25
2018-04-29T08:30:09.639Z,21.27
2018-04-29T08:31:09.803Z,21.25
2018-04-29T08:32:09.552Z,21.4
2018-04-29T08:33:09.804Z,21.28
2018-04-29T08:34:09.814Z,21.27
2018-04-29T08:35:09.803Z,21.19
2018-04-29T08:36:09.679Z,21.19
2018-04-29T08:37:09.555Z,21.25
2018-04-29T08:38:09.538Z,21.18
2018-04-29T08:39:09.551Z,21.12
2018-04-29T08:40:09.814Z,21.08
2018-04-29T08:41:09.805Z,21
2018-04-29T08:42:09.807Z,21.04
2018-04-29T08:43:09.862Z,21
2018-04-29T08:44:09.541Z,20.98
2018-04-29T08:45:09.563Z,21.01
2018-04-29T08:46:09.548Z,21.04
2018-04-29T08:47:09.533Z,21.06
2018-04-29T08:48:09.534Z,21.08
2018-04-29T08:49:09.796Z,21.08
2018-04-29T08:50:10.037Z,21.13
2018-04-29T08:51:09.535Z,21.18
2018-04-29T08:52:09.790Z,21.22
2018-04-29T08:53:09.541Z,21.18
2018-04-29T08:54:09.787Z,21.16
2018-04-29T08:55:09.799Z,21.25
2018-04-29T08:56:10.030Z,21.4
2018-04-29T08:57:09.531Z,21.41
2018-04-29T08:58:09.801Z,21.41
2018-04-29T08:59:09.791Z,21.46
2018-04-29T09:00:09.803Z,21.48
2018-04-29T09:01:09.791Z,21.59
2018-04-29T09:02:10.008Z,21.58
2018-04-29T09:03:09.794Z,21.7
2018-04-29T09:04:09.529Z,21.62
2018-04-29T09:05:09.782Z,21.59
2018-04-29T09:06:09.526Z,21.76
2018-04-29T09:07:09.522Z,21.8
2018-04-29T09:08:10.014Z,21.8
2018-04-29T09:09:09.805Z,21.83
2018-04-29T09:10:09.895Z,21.86
2018-04-29T09:11:09.779Z,22
2018-04-29T09:12:09.784Z,22
2018-04-29T09:13:09.781Z,22.04
2018-04-29T09:14:09.527Z,22.05
2018-04-29T09:15:09.520Z,21.94
2018-04-29T09:16:09.261Z,21.96
2018-04-29T09:17:09.523Z,21.93
2018-04-29T09:18:09.521Z,21.97
2018-04-29T09:19:09.786Z,22.27
2018-04-29T09:20:09.780Z,22.29
2018-04-29T09:21:09.791Z,22.41
2018-04-29T09:22:09.794Z,22.48
2018-04-29T09:23:09.777Z,22.44
2018-04-29T09:24:09.772Z,22.45
2018-04-29T09:25:09.778Z,22.42
2018-04-29T09:26:09.787Z,22.46
2018-04-29T09:27:09.258Z,22.42
2018-04-29T09:28:09.768Z,22.3
2018-04-29T09:29:09.776Z,22.26
2018-04-29T09:30:09.792Z,22.23
2018-04-29T09:31:09.769Z,22.22
2018-04-29T09:32:09.782Z,22.24
2018-04-29T09:33:09.514Z,22.24
2018-04-29T09:34:09.777Z,22.22
2018-04-29T09:35:09.519Z,22.14
2018-04-29T09:36:09.773Z,22.27
2018-04-29T09:37:09.640Z,22.18
2018-04-29T09:38:09.256Z,22.24
2018-04-29T09:39:09.772Z,22.26
2018-04-29T09:40:09.257Z,22.33
2018-04-29T09:41:09.775Z,22.29
2018-04-29T09:42:09.518Z,22.38
2018-04-29T09:43:09.274Z,22.38
2018-04-29T09:44:09.773Z,22.33
2018-04-29T09:45:09.774Z,22.45
2018-04-29T09:46:09.777Z,22.42
2018-04-29T09:47:09.773Z,22.44
2018-04-29T09:48:09.519Z,22.51
2018-04-29T09:49:09.514Z,22.61
2018-04-29T09:50:09.475Z,22.64
2018-04-29T09:51:09.252Z,22.64
2018-04-29T09:52:09.776Z,22.76
2018-04-29T09:53:09.517Z,22.85
2018-04-29T09:54:09.817Z,22.85
2018-04-29T09:55:09.801Z,22.73
2018-04-29T09:56:09.777Z,22.76
2018-04-29T09:57:09.512Z,22.79
2018-04-29T09:58:09.517Z,23
2018-04-29T09:59:09.767Z,23.01
2018-04-29T10:00:09.512Z,23.03
2018-04-29T10:01:10.096Z,22.94
2018-04-29T10:02:09.515Z,22.85
2018-04-29T10:03:09.777Z,22.91
2018-04-29T10:04:09.521Z,22.92
2018-04-29T10:05:09.792Z,22.86
2018-04-29T10:06:09.775Z,22.79
2018-04-29T10:07:09.772Z,22.78
2018-04-29T10:08:09.769Z,22.85
2018-04-29T10:09:09.511Z,22.89
2018-04-29T10:10:09.781Z,23.03
2018-04-29T10:11:09.777Z,23.1
2018-04-29T10:12:09.769Z,23.16
2018-04-29T10:13:09.813Z,22.97
2018-04-29T10:14:09.518Z,23.06
2018-04-29T10:15:09.517Z,23.01
2018-04-29T10:16:09.773Z,23.06
2018-04-29T10:17:09.574Z,23.01
2018-04-29T10:18:09.517Z,22.99
2018-04-29T10:19:09.540Z,23.04
2018-04-29T10:20:09.519Z,23
2018-04-29T10:21:09.780Z,23.14
2018-04-29T10:22:09.525Z,23.22
2018-04-29T10:23:09.518Z,23.1
2018-04-29T10:24:09.537Z,23.19
2018-04-29T10:25:09.523Z,22.99
2018-04-29T10:26:09.519Z,23
2018-04-29T10:27:09.785Z,23.01
2018-04-29T10:28:09.788Z,22.99
2018-04-29T10:29:09.779Z,23
2018-04-29T10:30:09.804Z,22.88
2018-04-29T10:31:09.524Z,22.81
2018-04-29T10:32:09.523Z,22.57
2018-04-29T10:33:10.120Z,22.39
2018-04-29T10:34:09.785Z,22.26
2018-04-29T10:35:09.270Z,22.29
2018-04-29T10:36:09.524Z,22.33
2018-04-29T10:37:09.787Z,22.36
2018-04-29T10:38:09.528Z,22.39
2018-04-29T10:39:09.525Z,22.45
2018-04-29T10:40:09.786Z,22.39
2018-04-29T10:41:09.573Z,22.54
2018-04-29T10:42:09.791Z,22.52
2018-04-29T10:43:09.790Z,22.57
2018-04-29T10:44:09.533Z,22.54
2018-04-29T10:45:09.803Z,22.46
2018-04-29T10:46:09.804Z,22.45
2018-04-29T10:47:09.807Z,22.49
2018-04-29T10:48:09.549Z,22.49
2018-04-29T10:49:09.793Z,22.75
2018-04-29T10:50:09.794Z,22.84
2018-04-29T10:51:09.528Z,22.97
2018-04-29T10:52:09.277Z,23.07
2018-04-29T10:53:09.796Z,23.15
2018-04-29T10:54:09.783Z,23.19
2018-04-29T10:55:09.808Z,23.06
2018-04-29T10:56:09.801Z,23.03
2018-04-29T10:57:09.532Z,23.16
2018-04-29T10:58:09.796Z,23.21
2018-04-29T10:59:09.790Z,23.28
2018-04-29T11:00:09.791Z,23.37
2018-04-29T11:01:09.612Z,23.48
2018-04-29T11:02:09.778Z,23.48
2018-04-29T11:03:09.537Z,23.48
2018-04-29T11:04:09.799Z,23.42
2018-04-29T11:05:09.805Z,23.26
2018-04-29T11:06:10.015Z,23.32
2018-04-29T11:07:09.797Z,23.35
2018-04-29T11:08:09.793Z,23.38
2018-04-29T11:09:09.538Z,23.41
2018-04-29T11:10:09.542Z,23.47
2018-04-29T11:11:09.282Z,23.59
2018-04-29T11:12:09.543Z,23.63
2018-04-29T11:13:09.282Z,23.71
2018-04-29T11:14:09.545Z,23.94
2018-04-29T11:15:09.550Z,23.89
2018-04-29T11:16:09.879Z,24
2018-04-29T11:17:09.543Z,24.02
2018-04-29T11:18:09.561Z,24.12
2018-04-29T11:19:09.799Z,24.02
2018-04-29T11:20:09.809Z,24.11
2018-04-29T11:21:09.552Z,24.21
2018-04-29T11:22:10.212Z,24.29
2018-04-29T11:23:09.810Z,24.39
2018-04-29T11:24:09.815Z,24.49
2018-04-29T11:25:09.813Z,24.63
2018-04-29T11:26:09.812Z,24.7
2018-04-29T11:27:09.561Z,24.96
2018-04-29T11:28:09.322Z,24.94
2018-04-29T11:29:09.823Z,25.02
2018-04-29T11:30:09.563Z,25.05
2018-04-29T11:31:09.562Z,25.07
2018-04-29T11:32:09.817Z,25.08
2018-04-29T11:33:09.566Z,25.05
2018-04-29T11:34:09.828Z,24.96
2018-04-29T11:35:09.825Z,24.94
2018-04-29T11:36:09.833Z,24.9
2018-04-29T11:37:09.828Z,24.93
2018-04-29T11:38:09.316Z,24.83
2018-04-29T11:39:09.857Z,24.85
2018-04-29T11:40:09.611Z,24.69
2018-04-29T11:41:09.833Z,24.82
2018-04-29T11:42:09.581Z,24.7
2018-04-29T11:43:09.582Z,24.67
2018-04-29T11:44:09.583Z,24.74
2018-04-29T11:45:09.841Z,24.83
2018-04-29T11:46:09.865Z,24.67
2018-04-29T11:47:09.847Z,24.64
2018-04-29T11:48:09.590Z,24.54
2018-04-29T11:49:09.592Z,24.55
2018-04-29T11:50:09.862Z,24.56
2018-04-29T11:51:09.892Z,24.7
2018-04-29T11:52:09.876Z,24.7
2018-04-29T11:53:09.859Z,24.69
2018-04-29T11:54:09.870Z,24.7
2018-04-29T11:55:09.865Z,24.67
2018-04-29T11:56:09.870Z,24.87
2018-04-29T11:57:09.863Z,24.87
2018-04-29T11:58:09.352Z,24.86
2018-04-29T11:59:09.889Z,24.97
2018-04-29T12:00:09.616Z,24.96
2018-04-29T12:01:09.878Z,24.94
2018-04-29T12:02:09.952Z,24.93
2018-04-29T12:03:09.640Z,24.97
2018-04-29T12:04:09.388Z,24.92
2018-04-29T12:05:09.889Z,24.93
2018-04-29T12:06:09.882Z,24.94
2018-04-29T12:07:09.632Z,24.85
2018-04-29T12:08:09.633Z,24.75
2018-04-29T12:09:09.905Z,24.67
2018-04-29T12:10:09.388Z,24.66
2018-04-29T12:11:09.894Z,24.64
2018-04-29T12:12:09.676Z,24.7
2018-04-29T12:13:09.648Z,24.59
2018-04-29T12:14:09.667Z,24.44
2018-04-29T12:15:09.644Z,24.33
2018-04-29T12:16:09.650Z,24.21
2018-04-29T12:17:09.916Z,24.07
2018-04-29T12:18:09.928Z,23.96
2018-04-29T12:19:09.919Z,23.81
2018-04-29T12:20:09.417Z,23.6
2018-04-29T12:21:09.658Z,23.59
2018-04-29T12:22:10.008Z,23.55
2018-04-29T12:23:09.667Z,23.53
2018-04-29T12:24:09.917Z,23.56
2018-04-29T12:25:09.407Z,23.47
2018-04-29T12:26:09.931Z,23.52
2018-04-29T12:27:09.926Z,23.4
2018-04-29T12:28:09.935Z,23.32
2018-04-29T12:29:09.693Z,23.38
2018-04-29T12:30:09.996Z,23.4
2018-04-29T12:31:10.134Z,23.29
2018-04-29T12:32:09.678Z,23.4
2018-04-29T12:33:09.957Z,23.37
2018-04-29T12:34:09.423Z,23.37
2018-04-29T12:35:09.940Z,23.38
2018-04-29T12:36:09.955Z,23.53
2018-04-29T12:37:09.941Z,23.56
2018-04-29T12:38:09.947Z,23.62
2018-04-29T12:39:09.953Z,23.66
2018-04-29T12:40:09.689Z,23.64
2018-04-29T12:41:09.690Z,23.64
2018-04-29T12:42:09.431Z,23.7
2018-04-29T12:43:09.693Z,23.66
2018-04-29T12:44:10.176Z,23.75
2018-04-29T12:45:09.963Z,23.78
2018-04-29T12:46:09.958Z,23.9
2018-04-29T12:47:09.967Z,24.09
2018-04-29T12:48:09.943Z,24.12
2018-04-29T12:49:09.977Z,24.24
2018-04-29T12:50:09.708Z,24.29
2018-04-29T12:51:09.966Z,24.45
2018-04-29T12:52:10.015Z,24.45
2018-04-29T12:53:09.707Z,24.52
2018-04-29T12:54:09.971Z,24.61
2018-04-29T12:55:09.719Z,24.56
2018-04-29T12:56:09.723Z,24.69
2018-04-29T12:57:09.985Z,24.75
2018-04-29T12:58:10.016Z,24.89
2018-04-29T12:59:09.986Z,24.96
2018-04-29T13:00:09.858Z,25.05
2018-04-29T13:01:09.986Z,25.27
2018-04-29T13:02:09.982Z,25.27
2018-04-29T13:03:09.992Z,25.27
2018-04-29T13:04:09.730Z,25.37
2018-04-29T13:05:09.743Z,25.48
2018-04-29T13:06:09.737Z,25.49